Terminal Aerodrome Forecast
Issued by NWS Blacksburg, VA

Home | Current Version | Previous Version | Text Only | Print | Product List | Glossary On
Versions: 1 2 3 4 5 6 7 8 9 10 11 12 13 14 15 16 17 18 19 20 21 22 23 24 25 26 27
000
FTUS41 KRNK 041733
TAFLYH
TAF
KLYH 041733Z 0418/0518 04005KT P6SM VCTS BKN050CB
      TEMPO 0420/0422 VRB15G30KT 5SM TSRA OVC050CB
     FM050300 03005KT P6SM VCSH OVC050
     FM050700 05003KT 6SM BR SCT025 BKN080
     FM050900 04002KT 4SM BR SCT010 BKN025
     FM051500 05006KT P6SM SCT025 BKN040=

USA.gov is the U.S. government's official web portal to all federal, state and local government web resources and services.